Time;durP1;ratioP1;P1;durP2;ratioP2;P2;SDS_P1;SDS_P2;PMS_P1;PMS_P2;Temp;Humidity;BMP_temperature;BMP_pressure;BME280_temperature;BME280_humidity;BME280_pressure;Samples;Min_cycle;Max_cycle;Signal;HPM_P1;HPM_P2
2022/03/04 00:01:37;;;;;;;;;;;16.40;39.60;;;;;;5094072;27;43764;-75
2022/03/04 00:04:03;;;;;;;;;;;16.40;40.30;;;;;;5105141;27;43014;-75
2022/03/04 00:06:29;;;;;;;;;;;16.40;40.30;;;;;;5105873;27;42988;-75
2022/03/04 00:08:54;;;;;;;;;;;16.40;40.30;;;;;;5105672;27;42909;-75
2022/03/04 00:11:20;;;;;;;;;;;16.30;39.80;;;;;;5104897;27;43818;-76
2022/03/04 00:13:46;;;;;;;;;;;16.40;40.30;;;;;;5105596;27;42897;-75
2022/03/04 00:16:15;;;;;;;;;;;16.40;40.40;;;;;;5104955;27;43956;-76
2022/03/04 00:18:40;;;;;;;;;;;15.60;40.60;;;;;;5105091;27;43068;-76
2022/03/04 00:21:06;;;;;;;;;;;16.40;40.00;;;;;;5104520;27;43387;-75
2022/03/04 00:23:32;;;;;;;;;;;16.40;40.40;;;;;;5104803;27;42944;-75
2022/03/04 00:25:57;;;;;;;;;;;16.40;40.10;;;;;;5103501;27;44763;-75
2022/03/04 00:28:23;;;;;;;;;;;16.40;40.50;;;;;;5095269;27;42879;-76
2022/03/04 00:30:49;;;;;;;;;;;16.40;40.40;;;;;;5083702;27;42903;-76
2022/03/04 00:33:14;;;;;;;;;;;16.40;40.50;;;;;;5086537;27;42895;-76
2022/03/04 00:35:40;;;;;;;;;;;16.40;40.60;;;;;;5087718;28;43249;-75
2022/03/04 00:38:05;;;;;;;;;;;16.40;40.50;;;;;;5087781;27;42894;-75
2022/03/04 00:40:31;;;;;;;;;;;16.30;40.70;;;;;;5087609;28;43034;-75
2022/03/04 00:42:56;;;;;;;;;;;16.40;40.70;;;;;;5087908;27;42893;-75
2022/03/04 00:45:22;;;;;;;;;;;16.30;40.50;;;;;;5088296;27;42716;-75
2022/03/04 00:47:48;;;;;;;;;;;16.40;40.80;;;;;;5088078;27;42911;-75
2022/03/04 00:50:13;;;;;;;;;;;16.40;40.80;;;;;;5087557;27;42915;-76
2022/03/04 00:52:39;;;;;;;;;;;16.30;40.20;;;;;;5087989;27;42850;-75
2022/03/04 00:55:04;;;;;;;;;;;16.30;40.80;;;;;;5088040;28;43940;-75
2022/03/04 00:57:30;;;;;;;;;;;16.30;40.60;;;;;;5087816;27;42838;-76
2022/03/04 00:59:55;;;;;;;;;;;16.30;40.80;;;;;;5086900;28;42958;-75
2022/03/04 01:02:21;;;;;;;;;;;15.90;40.70;;;;;;5087464;28;42976;-75
2022/03/04 01:04:46;;;;;;;;;;;16.40;40.90;;;;;;5087059;28;42917;-75
2022/03/04 01:07:12;;;;;;;;;;;16.40;40.80;;;;;;5087330;28;43082;-75
2022/03/04 01:09:37;;;;;;;;;;;16.30;41.00;;;;;;5087105;28;44193;-75
2022/03/04 01:12:04;;;;;;;;;;;16.40;41.00;;;;;;5102845;27;42971;-75
2022/03/04 01:14:29;;;;;;;;;;;16.40;40.70;;;;;;5087666;28;42910;-75
2022/03/04 01:16:55;;;;;;;;;;;16.40;40.80;;;;;;5087320;28;43017;-76
2022/03/04 01:19:20;;;;;;;;;;;16.30;40.40;;;;;;5087379;28;43017;-76
2022/03/04 01:21:46;;;;;;;;;;;16.40;41.00;;;;;;5087548;28;42957;-75
2022/03/04 01:24:11;;;;;;;;;;;16.30;41.10;;;;;;5087135;28;43579;-75
2022/03/04 01:26:37;;;;;;;;;;;16.40;41.00;;;;;;5087462;28;42771;-75
2022/03/04 01:29:03;;;;;;;;;;;16.40;41.10;;;;;;5101919;27;44351;-75
2022/03/04 01:31:28;;;;;;;;;;;16.30;40.90;;;;;;5107981;27;42843;-75
2022/03/04 01:33:54;;;;;;;;;;;16.30;41.00;;;;;;5107621;27;42966;-75
2022/03/04 01:36:19;;;;;;;;;;;16.30;40.80;;;;;;5107882;27;42902;-76
2022/03/04 01:38:45;;;;;;;;;;;16.30;41.10;;;;;;5107506;27;43005;-75
2022/03/04 01:41:10;;;;;;;;;;;16.30;41.00;;;;;;5107587;27;43006;-75
2022/03/04 01:43:36;;;;;;;;;;;13.50;39.80;;;;;;5106557;27;42971;-76
2022/03/04 01:46:15;;;;;;;;;;;16.30;41.00;;;;;;5107548;27;42836;-76
2022/03/04 01:48:42;;;;;;;;;;;16.40;40.80;;;;;;5107843;27;42937;-75
2022/03/04 01:51:09;;;;;;;;;;;16.40;40.90;;;;;;5107758;27;43020;-75
2022/03/04 01:53:35;;;;;;;;;;;16.40;41.00;;;;;;5107260;27;43760;-75
2022/03/04 01:56:00;;;;;;;;;;;16.30;41.00;;;;;;5107575;27;43077;-75
2022/03/04 01:58:26;;;;;;;;;;;16.30;41.10;;;;;;5107127;27;42916;-75
2022/03/04 02:00:51;;;;;;;;;;;16.30;41.00;;;;;;5107607;27;42971;-75
2022/03/04 02:03:17;;;;;;;;;;;16.40;41.00;;;;;;5107020;27;43013;-75
2022/03/04 02:05:44;;;;;;;;;;;16.30;41.00;;;;;;5107223;27;42969;-75
2022/03/04 02:08:09;;;;;;;;;;;16.90;41.10;;;;;;5107720;27;43312;-75
2022/03/04 02:10:35;;;;;;;;;;;16.30;40.90;;;;;;5095966;27;42980;-75
2022/03/04 02:13:00;;;;;;;;;;;16.30;41.10;;;;;;5086256;28;42900;-76
2022/03/04 02:15:26;;;;;;;;;;;16.30;41.00;;;;;;5086822;28;42864;-76
2022/03/04 02:17:51;;;;;;;;;;;16.30;40.90;;;;;;5086529;28;42967;-76
2022/03/04 02:20:19;;;;;;;;;;;16.30;41.10;;;;;;5086974;28;42801;-75
2022/03/04 02:22:45;;;;;;;;;;;16.40;41.00;;;;;;5086545;28;43146;-75
2022/03/04 02:25:10;;;;;;;;;;;16.40;41.10;;;;;;5086633;28;42882;-76
2022/03/04 02:27:36;;;;;;;;;;;16.30;41.00;;;;;;5086400;28;43873;-75
2022/03/04 02:30:02;;;;;;;;;;;16.40;40.90;;;;;;5086471;27;42905;-75
2022/03/04 02:32:28;;;;;;;;;;;16.30;41.30;;;;;;5085762;27;43791;-75
2022/03/04 02:34:53;;;;;;;;;;;16.30;40.60;;;;;;5086054;27;43086;-75
2022/03/04 02:37:19;;;;;;;;;;;16.20;41.10;;;;;;5086788;27;43710;-76
2022/03/04 02:39:45;;;;;;;;;;;16.30;41.00;;;;;;5086153;27;42939;-75
2022/03/04 02:42:10;;;;;;;;;;;16.30;41.20;;;;;;5077441;28;42881;-75
2022/03/04 02:44:36;;;;;;;;;;;16.30;40.80;;;;;;5085575;28;42941;-76
2022/03/04 02:47:01;;;;;;;;;;;16.30;41.00;;;;;;5085382;28;43661;-75
2022/03/04 02:49:27;;;;;;;;;;;16.40;41.40;;;;;;5085510;27;42948;-76
2022/03/04 02:51:52;;;;;;;;;;;16.30;41.30;;;;;;5085125;28;42995;-75
2022/03/04 02:54:18;;;;;;;;;;;16.30;40.90;;;;;;5085733;28;43160;-75
2022/03/04 02:56:44;;;;;;;;;;;16.30;40.90;;;;;;5084803;28;43364;-76
2022/03/04 02:59:10;;;;;;;;;;;16.30;41.00;;;;;;5085634;28;43146;-75
2022/03/04 03:01:36;;;;;;;;;;;16.40;41.00;;;;;;5085916;28;42986;-75
2022/03/04 03:04:01;;;;;;;;;;;16.40;40.90;;;;;;5085745;28;42898;-75
2022/03/04 03:06:27;;;;;;;;;;;16.40;41.00;;;;;;5085893;28;43320;-75
2022/03/04 03:08:52;;;;;;;;;;;16.40;40.90;;;;;;5101544;27;43062;-75
2022/03/04 03:11:18;;;;;;;;;;;16.40;40.90;;;;;;5085925;28;43461;-76
2022/03/04 03:13:43;;;;;;;;;;;16.40;41.00;;;;;;5085483;28;42914;-76
2022/03/04 03:16:09;;;;;;;;;;;16.30;41.00;;;;;;5085622;28;43775;-75
2022/03/04 03:18:34;;;;;;;;;;;16.30;40.90;;;;;;5085247;28;42999;-75
2022/03/04 03:21:00;;;;;;;;;;;16.40;40.90;;;;;;5085535;28;43195;-75
2022/03/04 03:23:25;;;;;;;;;;;16.30;41.00;;;;;;5084988;28;42771;-75
2022/03/04 03:25:51;;;;;;;;;;;16.40;40.90;;;;;;5085854;28;42755;-75
2022/03/04 03:28:16;;;;;;;;;;;16.40;41.00;;;;;;5093616;27;42982;-76
2022/03/04 03:30:42;;;;;;;;;;;16.40;41.00;;;;;;5106061;27;43394;-76
2022/03/04 03:33:07;;;;;;;;;;;16.30;41.10;;;;;;5105933;27;42925;-76
2022/03/04 03:35:33;;;;;;;;;;;16.30;40.40;;;;;;5105693;27;43037;-76
2022/03/04 03:37:58;;;;;;;;;;;16.30;41.10;;;;;;5105394;27;42930;-75
2022/03/04 03:40:24;;;;;;;;;;;16.30;40.50;;;;;;5105688;27;43430;-75
2022/03/04 03:42:50;;;;;;;;;;;16.30;40.50;;;;;;5106033;27;42828;-75
2022/03/04 03:45:15;;;;;;;;;;;16.30;40.50;;;;;;5105528;27;43377;-75
2022/03/04 03:47:42;;;;;;;;;;;16.30;40.50;;;;;;5105149;27;42838;-76
2022/03/04 03:50:09;;;;;;;;;;;16.40;41.00;;;;;;5105031;27;43055;-75
2022/03/04 03:52:34;;;;;;;;;;;16.40;41.00;;;;;;5104533;27;43033;-76
2022/03/04 03:55:00;;;;;;;;;;;16.30;41.00;;;;;;5106004;27;42957;-75
2022/03/04 03:57:26;;;;;;;;;;;16.40;40.60;;;;;;5105733;27;42923;-76
2022/03/04 03:59:51;;;;;;;;;;;16.40;41.10;;;;;;5105282;27;43462;-76
2022/03/04 04:02:17;;;;;;;;;;;16.30;41.20;;;;;;5104270;27;42995;-75
2022/03/04 04:04:42;;;;;;;;;;;16.30;41.10;;;;;;5096332;27;43614;-75
2022/03/04 04:07:09;;;;;;;;;;;16.40;41.20;;;;;;5087006;27;42939;-75
2022/03/04 04:09:35;;;;;;;;;;;16.40;41.10;;;;;;5088592;27;42790;-75
2022/03/04 04:12:00;;;;;;;;;;;16.40;41.30;;;;;;5088613;28;42989;-76
2022/03/04 04:14:26;;;;;;;;;;;16.30;41.20;;;;;;5088225;28;43688;-75
2022/03/04 04:16:52;;;;;;;;;;;16.30;41.20;;;;;;5088016;28;42914;-76
2022/03/04 04:19:18;;;;;;;;;;;16.40;41.20;;;;;;5088570;27;42918;-75
2022/03/04 04:21:44;;;;;;;;;;;16.40;41.20;;;;;;5088649;28;42947;-76
2022/03/04 04:24:09;;;;;;;;;;;16.40;41.40;;;;;;5088129;28;42955;-76
2022/03/04 04:26:35;;;;;;;;;;;16.40;41.20;;;;;;5088387;28;43583;-75
2022/03/04 04:29:01;;;;;;;;;;;16.40;41.20;;;;;;5088000;27;43526;-76
2022/03/04 04:31:26;;;;;;;;;;;16.30;41.40;;;;;;5087863;27;42841;-75
2022/03/04 04:33:52;;;;;;;;;;;16.40;41.30;;;;;;5083143;28;43642;-75
2022/03/04 04:36:18;;;;;;;;;;;16.30;41.40;;;;;;5088097;28;42907;-75
2022/03/04 04:38:43;;;;;;;;;;;16.30;40.80;;;;;;5088880;27;42911;-75
2022/03/04 04:41:09;;;;;;;;;;;16.30;40.80;;;;;;5076063;27;43514;-75
2022/03/04 04:43:35;;;;;;;;;;;16.30;41.50;;;;;;5106386;27;43464;-75
2022/03/04 04:46:01;;;;;;;;;;;16.20;41.60;;;;;;5100513;27;42776;-75
2022/03/04 04:48:26;;;;;;;;;;;16.30;41.60;;;;;;5087528;28;42837;-75
2022/03/04 04:50:52;;;;;;;;;;;16.30;41.80;;;;;;5087534;27;42859;-74
2022/03/04 04:53:17;;;;;;;;;;;16.30;41.70;;;;;;5086912;28;43170;-75
2022/03/04 04:55:43;;;;;;;;;;;15.90;41.50;;;;;;5099060;27;42892;-75
2022/03/04 04:58:09;;;;;;;;;;;16.30;41.90;;;;;;5107237;27;43686;-75
2022/03/04 05:00:34;;;;;;;;;;;16.30;41.80;;;;;;5107360;27;44250;-75
2022/03/04 05:03:00;;;;;;;;;;;16.30;41.70;;;;;;5107801;27;42930;-75
2022/03/04 05:05:25;;;;;;;;;;;16.30;41.60;;;;;;5099186;27;43016;-76
2022/03/04 05:07:51;;;;;;;;;;;16.30;41.80;;;;;;5092457;27;43475;-75
2022/03/04 05:10:16;;;;;;;;;;;16.30;41.60;;;;;;5096835;27;42909;-75
2022/03/04 05:12:42;;;;;;;;;;;16.30;41.60;;;;;;5103553;27;42945;-75
2022/03/04 05:15:08;;;;;;;;;;;16.40;41.70;;;;;;5106477;27;43007;-75
2022/03/04 05:17:33;;;;;;;;;;;16.30;41.10;;;;;;5106364;27;42905;-76
2022/03/04 05:19:59;;;;;;;;;;;16.30;41.70;;;;;;5097954;27;43265;-76
2022/03/04 05:22:24;;;;;;;;;;;16.30;41.60;;;;;;5096730;27;43994;-73
2022/03/04 05:24:50;;;;;;;;;;;16.30;41.60;;;;;;5096584;27;43152;-75
2022/03/04 05:27:15;;;;;;;;;;;16.30;41.50;;;;;;5095577;27;43674;-75
2022/03/04 05:29:41;;;;;;;;;;;16.30;41.60;;;;;;5094195;27;43359;-75
2022/03/04 05:32:07;;;;;;;;;;;16.30;41.60;;;;;;5096439;27;42902;-74
2022/03/04 05:34:33;;;;;;;;;;;16.30;41.60;;;;;;5095792;27;42988;-75
2022/03/04 05:36:59;;;;;;;;;;;16.30;41.60;;;;;;5094568;27;43649;-76
2022/03/04 05:39:24;;;;;;;;;;;16.30;41.70;;;;;;5095394;27;43072;-75
2022/03/04 05:41:50;;;;;;;;;;;16.30;41.70;;;;;;5096669;27;43047;-75
2022/03/04 05:44:15;;;;;;;;;;;16.30;41.70;;;;;;5094631;27;42999;-75
2022/03/04 05:46:41;;;;;;;;;;;16.30;41.60;;;;;;5096556;27;43510;-75
2022/03/04 05:49:07;;;;;;;;;;;16.30;41.70;;;;;;5095657;27;42913;-75
2022/03/04 05:51:33;;;;;;;;;;;16.30;41.80;;;;;;5094696;27;43063;-75
2022/03/04 05:53:59;;;;;;;;;;;16.30;41.80;;;;;;5096260;27;42876;-75
2022/03/04 05:56:25;;;;;;;;;;;16.30;41.60;;;;;;5095799;27;43424;-75
2022/03/04 05:58:50;;;;;;;;;;;16.30;41.70;;;;;;5096771;27;42902;-75
2022/03/04 06:01:16;;;;;;;;;;;16.30;41.70;;;;;;5097633;27;43579;-75
2022/03/04 06:03:42;;;;;;;;;;;16.30;41.70;;;;;;5084859;27;42937;-75
2022/03/04 06:06:10;;;;;;;;;;;16.30;41.70;;;;;;5086935;27;43580;-74
2022/03/04 06:08:36;;;;;;;;;;;15.90;39.30;;;;;;5091916;27;42948;-74
2022/03/04 06:11:01;;;;;;;;;;;15.40;37.90;;;;;;5093560;27;43411;-73
2022/03/04 06:13:27;;;;;;;;;;;15.30;38.00;;;;;;5096397;27;42929;-74
2022/03/04 06:15:52;;;;;;;;;;;15.20;37.40;;;;;;5093596;27;43425;-73
2022/03/04 06:18:18;;;;;;;;;;;15.00;37.00;;;;;;5090479;27;42937;-74
2022/03/04 06:20:44;;;;;;;;;;;14.80;37.10;;;;;;5086464;27;43870;-74
2022/03/04 06:23:09;;;;;;;;;;;14.70;36.60;;;;;;5101633;27;43174;-74
2022/03/04 06:25:35;;;;;;;;;;;14.60;37.30;;;;;;5096235;27;43565;-74
2022/03/04 06:28:01;;;;;;;;;;;14.50;37.40;;;;;;5085628;28;42900;-74
2022/03/04 06:30:29;;;;;;;;;;;14.60;37.60;;;;;;5085962;27;43036;-73
2022/03/04 06:33:30;;;;;;;;;;;14.60;37.60;;;;;;5084596;27;43237;-73
2022/03/04 06:35:41;;;;;;;;;;;14.70;37.30;;;;;;5084475;28;42875;-72
2022/03/04 06:38:07;;;;;;;;;;;14.60;37.30;;;;;;5104928;27;43026;-72
2022/03/04 06:40:32;;;;;;;;;;;14.60;37.40;;;;;;5094545;27;43144;-74
2022/03/04 06:42:58;;;;;;;;;;;14.50;37.50;;;;;;5092525;27;43166;-75
2022/03/04 06:45:23;;;;;;;;;;;14.20;37.80;;;;;;5095956;27;43529;-74
2022/03/04 06:47:49;;;;;;;;;;;13.90;38.50;;;;;;5091225;27;42803;-73
2022/03/04 06:50:14;;;;;;;;;;;13.70;38.10;;;;;;5090093;27;43190;-75
2022/03/04 06:52:40;;;;;;;;;;;14.00;38.80;;;;;;5095947;27;43171;-75
2022/03/04 06:55:06;;;;;;;;;;;14.50;38.30;;;;;;5092669;27;43099;-74
2022/03/04 06:57:31;;;;;;;;;;;14.70;37.20;;;;;;5064460;28;42949;-74
2022/03/04 06:59:57;;;;;;;;;;;14.80;37.00;;;;;;5064956;28;43017;-74
2022/03/04 07:02:22;;;;;;;;;;;14.90;37.50;;;;;;5089314;27;43120;-74
2022/03/04 07:04:49;;;;;;;;;;;15.00;37.40;;;;;;5094048;27;42907;-74
2022/03/04 07:07:15;;;;;;;;;;;15.00;37.30;;;;;;5095789;27;42967;-75
2022/03/04 07:09:41;;;;;;;;;;;15.00;36.90;;;;;;5095480;27;43635;-73
2022/03/04 07:12:06;;;;;;;;;;;15.10;36.80;;;;;;5094798;27;43207;-75
2022/03/04 07:14:32;;;;;;;;;;;15.10;37.30;;;;;;5093902;27;43280;-74
2022/03/04 07:16:57;;;;;;;;;;;15.10;36.80;;;;;;5096274;27;43028;-74
2022/03/04 07:19:23;;;;;;;;;;;15.10;37.40;;;;;;5095754;27;43040;-75
2022/03/04 07:21:48;;;;;;;;;;;15.00;37.30;;;;;;5103404;27;42966;-76
2022/03/04 07:24:14;;;;;;;;;;;15.20;37.10;;;;;;5103821;27;43448;-74
2022/03/04 07:26:39;;;;;;;;;;;15.20;37.00;;;;;;5106517;27;42890;-74
2022/03/04 07:29:05;;;;;;;;;;;15.30;37.70;;;;;;5106029;27;43536;-74
2022/03/04 07:31:30;;;;;;;;;;;15.30;37.00;;;;;;5106160;27;42779;-75
2022/03/04 07:33:56;;;;;;;;;;;15.30;37.10;;;;;;5104598;27;45040;-74
2022/03/04 07:36:21;;;;;;;;;;;15.30;38.20;;;;;;5105412;27;43004;-74
2022/03/04 07:38:47;;;;;;;;;;;15.30;37.10;;;;;;5105234;27;42921;-74
2022/03/04 07:41:13;;;;;;;;;;;15.30;37.10;;;;;;5105181;27;43122;-74
2022/03/04 07:43:38;;;;;;;;;;;15.30;37.10;;;;;;5105938;27;43010;-74
2022/03/04 07:46:04;;;;;;;;;;;15.40;37.10;;;;;;5106395;27;43223;-73
2022/03/04 07:48:29;;;;;;;;;;;15.40;37.10;;;;;;5105814;27;42890;-74
2022/03/04 07:50:55;;;;;;;;;;;15.40;37.20;;;;;;5105472;27;43067;-73
2022/03/04 07:53:22;;;;;;;;;;;15.40;37.20;;;;;;5104253;27;63738;-73
2022/03/04 07:55:48;;;;;;;;;;;15.40;37.70;;;;;;5105340;27;43088;-75
2022/03/04 07:58:15;;;;;;;;;;;15.50;37.80;;;;;;5105193;27;43381;-73
2022/03/04 08:00:40;;;;;;;;;;;15.50;37.40;;;;;;5105508;27;42968;-74
2022/03/04 08:03:06;;;;;;;;;;;15.50;38.00;;;;;;5105272;27;43725;-75
2022/03/04 08:05:32;;;;;;;;;;;15.10;37.80;;;;;;5105356;27;42959;-75
2022/03/04 08:07:58;;;;;;;;;;;15.60;38.10;;;;;;5104548;27;42985;-76
2022/03/04 08:10:24;;;;;;;;;;;15.60;37.70;;;;;;5105174;27;43130;-74
2022/03/04 08:12:49;;;;;;;;;;;15.40;37.40;;;;;;5105457;27;43545;-75
2022/03/04 08:15:15;;;;;;;;;;;15.60;38.00;;;;;;5104214;27;43056;-73
2022/03/04 08:17:41;;;;;;;;;;;15.60;37.90;;;;;;5105625;27;42940;-72
2022/03/04 08:20:08;;;;;;;;;;;15.70;37.90;;;;;;5105181;27;42794;-74
2022/03/04 08:22:33;;;;;;;;;;;15.60;37.70;;;;;;5105246;27;43730;-73
2022/03/04 08:24:59;;;;;;;;;;;15.70;36.00;;;;;;5105447;27;42852;-73
2022/03/04 08:27:24;;;;;;;;;;;15.60;36.90;;;;;;5104654;27;43053;-74
2022/03/04 08:29:50;;;;;;;;;;;15.70;36.20;;;;;;5104691;27;42909;-74
2022/03/04 08:32:16;;;;;;;;;;;15.70;35.40;;;;;;5105022;27;42730;-73
2022/03/04 08:34:42;;;;;;;;;;;15.60;34.80;;;;;;5104777;27;42960;-73
2022/03/04 08:37:08;;;;;;;;;;;15.60;34.70;;;;;;5105443;27;42914;-76
2022/03/04 08:39:33;;;;;;;;;;;15.60;34.40;;;;;;5106246;27;42967;-77
2022/03/04 08:41:59;;;;;;;;;;;15.60;34.10;;;;;;5106088;27;42906;-75
2022/03/04 08:44:24;;;;;;;;;;;15.60;34.10;;;;;;5105022;27;43483;-76
2022/03/04 08:46:50;;;;;;;;;;;15.60;33.10;;;;;;5105047;27;42864;-74
2022/03/04 08:49:19;;;;;;;;;;;15.60;33.40;;;;;;5104962;27;42986;-76
2022/03/04 08:51:44;;;;;;;;;;;16.20;33.30;;;;;;5104401;27;43465;-74
2022/03/04 08:54:10;;;;;;;;;;;15.70;33.30;;;;;;5106902;27;42949;-75
2022/03/04 08:56:36;;;;;;;;;;;15.60;32.50;;;;;;5108475;27;43633;-74
2022/03/04 08:59:01;;;;;;;;;;;15.70;33.10;;;;;;5108312;27;43070;-74
2022/03/04 09:01:27;;;;;;;;;;;15.70;31.90;;;;;;5108552;27;43168;-74
2022/03/04 09:03:52;;;;;;;;;;;15.70;31.40;;;;;;5106599;27;42996;-74
2022/03/04 09:06:18;;;;;;;;;;;15.70;32.60;;;;;;5108305;27;44126;-73
2022/03/04 09:08:43;;;;;;;;;;;15.70;32.40;;;;;;5108813;27;42871;-74
2022/03/04 09:11:09;;;;;;;;;;;15.70;32.90;;;;;;5108339;27;42924;-74
2022/03/04 09:13:35;;;;;;;;;;;15.80;33.10;;;;;;5108201;27;42901;-73
2022/03/04 09:16:01;;;;;;;;;;;15.80;32.10;;;;;;5108103;27;43483;-74
2022/03/04 09:18:26;;;;;;;;;;;15.80;31.80;;;;;;5108261;27;42730;-73
2022/03/04 09:20:52;;;;;;;;;;;15.80;32.50;;;;;;5107915;27;42848;-73
2022/03/04 09:23:17;;;;;;;;;;;15.80;32.60;;;;;;5108311;27;43100;-74
2022/03/04 09:25:43;;;;;;;;;;;15.70;32.70;;;;;;5106354;27;44434;-74
2022/03/04 09:28:08;;;;;;;;;;;15.80;32.80;;;;;;5106257;27;43068;-73
2022/03/04 09:30:36;;;;;;;;;;;15.70;32.30;;;;;;5107062;27;43714;-74
2022/03/04 09:33:02;;;;;;;;;;;15.60;32.60;;;;;;5107733;27;43082;-74
2022/03/04 09:35:27;;;;;;;;;;;15.70;33.00;;;;;;5107774;27;42850;-73
2022/03/04 09:37:53;;;;;;;;;;;15.70;32.80;;;;;;5107910;27;42896;-74
2022/03/04 09:40:18;;;;;;;;;;;15.80;33.00;;;;;;5108032;27;43405;-74
2022/03/04 09:42:44;;;;;;;;;;;15.80;33.30;;;;;;5107264;27;42972;-74
2022/03/04 09:45:10;;;;;;;;;;;15.70;32.90;;;;;;5107266;27;42973;-74
2022/03/04 09:47:35;;;;;;;;;;;15.60;32.60;;;;;;5107059;27;42971;-74
2022/03/04 09:50:02;;;;;;;;;;;15.50;32.20;;;;;;5106807;27;43012;-74
2022/03/04 09:52:28;;;;;;;;;;;15.50;32.60;;;;;;5107548;27;42913;-73
2022/03/04 09:54:54;;;;;;;;;;;15.50;32.50;;;;;;5107616;27;43234;-73
2022/03/04 09:57:19;;;;;;;;;;;15.40;32.50;;;;;;5108022;27;42764;-73
2022/03/04 09:59:45;;;;;;;;;;;15.50;32.40;;;;;;5107293;27;43831;-74
2022/03/04 10:02:12;;;;;;;;;;;15.50;32.00;;;;;;5107500;27;42860;-74
2022/03/04 10:04:38;;;;;;;;;;;15.50;32.00;;;;;;5106652;27;43815;-73
2022/03/04 10:07:09;;;;;;;;;;;15.50;32.10;;;;;;5107629;27;43058;-74
2022/03/04 10:09:43;;;;;;;;;;;15.60;32.10;;;;;;5107496;27;43017;-74
2022/03/04 10:12:09;;;;;;;;;;;15.50;32.00;;;;;;5107557;27;43057;-74
2022/03/04 10:14:54;;;;;;;;;;;15.30;31.70;;;;;;5107091;27;43851;-74
2022/03/04 10:17:19;;;;;;;;;;;15.30;31.80;;;;;;5107342;27;42820;-73
2022/03/04 10:19:50;;;;;;;;;;;15.30;31.60;;;;;;5107057;27;42852;-74
2022/03/04 10:22:16;;;;;;;;;;;15.20;30.80;;;;;;5107479;27;42831;-74
2022/03/04 10:24:41;;;;;;;;;;;15.30;30.50;;;;;;5106937;27;42840;-73
2022/03/04 10:27:12;;;;;;;;;;;15.30;30.30;;;;;;5106596;27;42849;-73
2022/03/04 10:29:48;;;;;;;;;;;15.20;29.60;;;;;;5104763;27;44612;-74
2022/03/04 10:32:13;;;;;;;;;;;15.00;29.10;;;;;;5106251;27;43237;-72
2022/03/04 10:34:53;;;;;;;;;;;15.10;29.60;;;;;;5105574;27;43123;-73
2022/03/04 10:37:20;;;;;;;;;;;15.20;29.30;;;;;;5106016;27;43215;-74
2022/03/04 10:40:12;;;;;;;;;;;15.30;29.80;;;;;;5106273;27;43411;-74
2022/03/04 10:42:39;;;;;;;;;;;15.40;29.30;;;;;;5104365;27;42969;-74
2022/03/04 10:45:07;;;;;;;;;;;15.20;29.00;;;;;;5106607;27;42945;-74
2022/03/04 10:47:49;;;;;;;;;;;15.10;29.00;;;;;;5106601;27;42981;-78
2022/03/04 10:50:16;;;;;;;;;;;15.00;27.30;;;;;;5104796;27;44301;-74
2022/03/04 10:53:01;;;;;;;;;;;15.10;28.30;;;;;;5106788;27;42837;-74
2022/03/04 10:55:47;;;;;;;;;;;15.10;28.50;;;;;;5106871;27;43561;-74
2022/03/04 10:58:15;;;;;;;;;;;15.10;28.80;;;;;;5106070;27;42851;-74
2022/03/04 11:00:51;;;;;;;;;;;15.00;28.70;;;;;;5107027;27;43825;-75
2022/03/04 11:03:19;;;;;;;;;;;15.10;28.60;;;;;;5106775;27;42913;-75
2022/03/04 11:05:45;;;;;;;;;;;14.90;28.30;;;;;;5106688;27;43779;-75
2022/03/04 11:08:11;;;;;;;;;;;14.80;28.30;;;;;;5105168;27;43034;-74
2022/03/04 11:10:37;;;;;;;;;;;15.00;28.70;;;;;;5106221;27;43548;-74
2022/03/04 11:13:06;;;;;;;;;;;15.10;28.90;;;;;;5105693;27;43022;-75
2022/03/04 11:15:32;;;;;;;;;;;15.10;28.80;;;;;;5105513;27;42953;-74
2022/03/04 11:18:00;;;;;;;;;;;15.10;28.90;;;;;;5105487;27;42995;-74
2022/03/04 11:20:26;;;;;;;;;;;15.10;28.30;;;;;;5105772;27;43584;-74
2022/03/04 11:22:53;;;;;;;;;;;15.20;29.10;;;;;;5106427;27;43237;-74
2022/03/04 11:25:18;;;;;;;;;;;15.40;29.30;;;;;;5106265;27;43346;-74
2022/03/04 11:27:45;;;;;;;;;;;15.40;28.70;;;;;;5104583;27;42957;-74
2022/03/04 11:30:34;;;;;;;;;;;15.20;28.00;;;;;;5106223;27;43038;-78
2022/03/04 11:33:03;;;;;;;;;;;15.00;27.80;;;;;;5097229;27;43029;-74
2022/03/04 11:35:40;;;;;;;;;;;14.90;28.00;;;;;;5092517;27;43011;-75
2022/03/04 11:38:06;;;;;;;;;;;14.80;27.90;;;;;;5107332;27;43198;-74
2022/03/04 11:40:33;;;;;;;;;;;14.80;27.90;;;;;;5094079;27;42916;-75
2022/03/04 11:42:59;;;;;;;;;;;15.00;28.10;;;;;;5101959;27;42972;-74
2022/03/04 11:45:35;;;;;;;;;;;14.20;26.60;;;;;;5105808;27;43381;-74
2022/03/04 11:48:01;;;;;;;;;;;14.90;26.80;;;;;;5105996;27;42890;-74
2022/03/04 11:50:28;;;;;;;;;;;14.90;27.00;;;;;;5105418;27;43175;-75
2022/03/04 11:53:10;;;;;;;;;;;14.80;27.10;;;;;;5104679;27;43205;-75
2022/03/04 11:55:36;;;;;;;;;;;14.80;26.80;;;;;;5104690;27;43801;-74
2022/03/04 11:58:02;;;;;;;;;;;14.80;27.10;;;;;;5104730;27;43166;-74
2022/03/04 12:00:28;;;;;;;;;;;14.70;26.40;;;;;;5104895;27;43477;-74
2022/03/04 12:02:55;;;;;;;;;;;14.80;26.80;;;;;;5105258;27;42893;-75
2022/03/04 12:05:22;;;;;;;;;;;14.90;26.90;;;;;;5103557;27;43098;-74
2022/03/04 12:07:49;;;;;;;;;;;14.90;26.60;;;;;;5066717;28;43614;-75
2022/03/04 12:10:20;;;;;;;;;;;14.80;26.80;;;;;;5064039;28;43626;-75
2022/03/04 12:13:03;;;;;;;;;;;14.90;27.00;;;;;;5064421;28;42981;-74
2022/03/04 12:15:30;;;;;;;;;;;15.10;27.00;;;;;;5064093;28;43028;-74
2022/03/04 12:18:14;;;;;;;;;;;15.00;26.70;;;;;;5069530;27;42980;-75
2022/03/04 12:20:39;;;;;;;;;;;15.00;26.90;;;;;;5099305;27;43261;-74
2022/03/04 12:23:13;;;;;;;;;;;15.10;26.80;;;;;;5095668;27;42938;-74
2022/03/04 12:28:22;;;;;;;;;;;14.90;26.80;;;;;;5087996;27;42995;-74
2022/03/04 12:31:06;;;;;;;;;;;14.80;26.90;;;;;;5098250;27;42977;-74
2022/03/04 12:33:32;;;;;;;;;;;14.90;27.10;;;;;;5089400;27;42962;-73
2022/03/04 12:35:58;;;;;;;;;;;15.10;27.00;;;;;;5096970;27;43610;-73
2022/03/04 12:38:26;;;;;;;;;;;15.10;27.40;;;;;;5096700;27;42956;-79
2022/03/04 12:40:54;;;;;;;;;;;15.20;27.50;;;;;;5094120;27;43945;-76
2022/03/04 12:43:20;;;;;;;;;;;15.30;27.70;;;;;;5097591;27;42961;-76
2022/03/04 12:45:45;;;;;;;;;;;15.30;28.00;;;;;;5099047;27;43457;-76
2022/03/04 12:48:11;;;;;;;;;;;15.30;28.10;;;;;;5096910;27;42929;-76
2022/03/04 12:50:37;;;;;;;;;;;15.40;28.30;;;;;;5097226;27;43458;-76
2022/03/04 12:53:18;;;;;;;;;;;15.40;28.60;;;;;;5101545;27;42888;-76
2022/03/04 12:55:47;;;;;;;;;;;15.50;28.60;;;;;;5106862;27;42998;-76
2022/03/04 12:58:13;;;;;;;;;;;15.40;28.80;;;;;;5096941;27;42953;-76
2022/03/04 13:00:38;;;;;;;;;;;15.40;29.00;;;;;;5094002;27;43043;-76
2022/03/04 13:03:19;;;;;;;;;;;15.50;29.30;;;;;;5096053;27;43288;-76
2022/03/04 13:05:46;;;;;;;;;;;15.50;29.10;;;;;;5087654;28;42993;-76
2022/03/04 13:08:14;;;;;;;;;;;15.50;29.40;;;;;;5095295;27;42819;-76
2022/03/04 13:10:40;;;;;;;;;;;15.50;29.40;;;;;;5107949;27;43430;-75
2022/03/04 13:13:06;;;;;;;;;;;15.50;29.60;;;;;;5106760;27;42945;-75
2022/03/04 13:15:32;;;;;;;;;;;15.50;29.70;;;;;;5096689;27;42976;-75
2022/03/04 13:17:59;;;;;;;;;;;15.60;29.80;;;;;;5097140;27;43101;-75
2022/03/04 13:20:24;;;;;;;;;;;15.50;29.90;;;;;;5094265;27;43016;-75
2022/03/04 13:23:06;;;;;;;;;;;15.50;29.90;;;;;;5097667;27;42929;-76
2022/03/04 13:25:32;;;;;;;;;;;15.60;29.90;;;;;;5095292;27;42874;-76
2022/03/04 13:27:58;;;;;;;;;;;15.50;30.00;;;;;;5089556;27;43187;-75
2022/03/04 13:30:24;;;;;;;;;;;15.50;30.10;;;;;;5095525;27;43153;-75
2022/03/04 13:32:54;;;;;;;;;;;15.60;30.20;;;;;;5096884;27;43012;-75
2022/03/04 13:35:24;;;;;;;;;;;15.60;30.20;;;;;;5097480;27;43021;-76
2022/03/04 13:37:50;;;;;;;;;;;15.60;30.30;;;;;;5096496;27;43079;-75
2022/03/04 13:40:16;;;;;;;;;;;15.60;30.40;;;;;;5094317;27;43041;-75
2022/03/04 13:42:43;;;;;;;;;;;15.60;30.50;;;;;;5095634;27;42993;-75
2022/03/04 13:45:12;;;;;;;;;;;15.60;30.70;;;;;;5096243;27;43743;-75
2022/03/04 13:47:46;;;;;;;;;;;15.60;30.60;;;;;;5095077;27;42992;-77
2022/03/04 13:50:23;;;;;;;;;;;15.60;30.70;;;;;;5096698;27;43565;-76
2022/03/04 13:52:51;;;;;;;;;;;15.60;30.80;;;;;;5093129;27;42915;-75
2022/03/04 13:55:17;;;;;;;;;;;15.60;30.90;;;;;;5096184;27;42932;-76
2022/03/04 13:57:42;;;;;;;;;;;15.60;31.40;;;;;;5095267;27;42952;-75
2022/03/04 14:00:11;;;;;;;;;;;15.70;31.20;;;;;;5094416;27;43732;-76
2022/03/04 14:02:41;;;;;;;;;;;15.60;30.70;;;;;;5095554;27;43043;-76
2022/03/04 14:05:07;;;;;;;;;;;15.60;31.20;;;;;;5096841;27;43081;-76
2022/03/04 14:07:39;;;;;;;;;;;15.70;31.30;;;;;;5094914;27;42957;-76
2022/03/04 14:10:09;;;;;;;;;;;15.60;31.20;;;;;;5097028;27;42931;-76
2022/03/04 14:12:34;;;;;;;;;;;15.70;31.30;;;;;;5093625;27;44022;-76
2022/03/04 14:15:00;;;;;;;;;;;15.70;31.60;;;;;;5089307;27;43705;-75
2022/03/04 14:17:25;;;;;;;;;;;15.70;31.50;;;;;;5097498;27;43003;-76